sensor_id;sensor_type;location;lat;lon;timestamp;temperature;humidity
25188;DHT22;13141;50.414;8.050;2023-03-01T00:02:18;0.60;99.90
25188;DHT22;13141;50.414;8.050;2023-03-01T00:04:43;0.30;99.90
25188;DHT22;13141;50.414;8.050;2023-03-01T00:07:10;0.30;99.90
25188;DHT22;13141;50.414;8.050;2023-03-01T00:09:36;0.30;99.90
25188;DHT22;13141;50.414;8.050;2023-03-01T00:12:02;0.30;99.90
25188;DHT22;13141;50.414;8.050;2023-03-01T00:14:27;0.40;99.80
25188;DHT22;13141;50.414;8.050;2023-03-01T00:16:53;0.40;99.60
25188;DHT22;13141;50.414;8.050;2023-03-01T00:19:19;0.50;99.60
25188;DHT22;13141;50.414;8.050;2023-03-01T00:21:46;0.60;99.40
25188;DHT22;13141;50.414;8.050;2023-03-01T00:24:13;0.10;99.00
25188;DHT22;13141;50.414;8.050;2023-03-01T00:26:39;0.90;99.10
25188;DHT22;13141;50.414;8.050;2023-03-01T00:29:04;0.70;99.00
25188;DHT22;13141;50.414;8.050;2023-03-01T00:31:32;1.00;98.90
25188;DHT22;13141;50.414;8.050;2023-03-01T00:34:00;0.80;98.80
25188;DHT22;13141;50.414;8.050;2023-03-01T00:36:28;1.20;98.90
25188;DHT22;13141;50.414;8.050;2023-03-01T00:38:54;0.90;98.90
25188;DHT22;13141;50.414;8.050;2023-03-01T00:41:21;0.90;98.70
25188;DHT22;13141;50.414;8.050;2023-03-01T00:43:47;0.90;98.90
25188;DHT22;13141;50.414;8.050;2023-03-01T00:46:15;0.90;98.80
25188;DHT22;13141;50.414;8.050;2023-03-01T00:48:41;0.90;98.80
25188;DHT22;13141;50.414;8.050;2023-03-01T00:51:08;1.00;98.60
25188;DHT22;13141;50.414;8.050;2023-03-01T00:53:35;1.00;98.50
25188;DHT22;13141;50.414;8.050;2023-03-01T00:56:00;1.00;98.50
25188;DHT22;13141;50.414;8.050;2023-03-01T00:58:28;1.10;98.50
25188;DHT22;13141;50.414;8.050;2023-03-01T01:00:53;1.10;98.40
25188;DHT22;13141;50.414;8.050;2023-03-01T01:03:19;1.10;98.60
25188;DHT22;13141;50.414;8.050;2023-03-01T01:05:45;1.40;98.20
25188;DHT22;13141;50.414;8.050;2023-03-01T01:08:10;1.20;98.20
25188;DHT22;13141;50.414;8.050;2023-03-01T01:10:36;1.20;98.10
25188;DHT22;13141;50.414;8.050;2023-03-01T01:13:02;1.20;98.40
25188;DHT22;13141;50.414;8.050;2023-03-01T01:15:29;1.10;98.50
25188;DHT22;13141;50.414;8.050;2023-03-01T01:17:58;1.00;98.70
25188;DHT22;13141;50.414;8.050;2023-03-01T01:20:23;0.90;99.40
25188;DHT22;13141;50.414;8.050;2023-03-01T01:22:49;0.80;99.50
25188;DHT22;13141;50.414;8.050;2023-03-01T01:25:15;0.70;99.90
25188;DHT22;13141;50.414;8.050;2023-03-01T01:27:40;0.60;99.90
25188;DHT22;13141;50.414;8.050;2023-03-01T01:30:07;1.00;99.90
25188;DHT22;13141;50.414;8.050;2023-03-01T01:32:34;0.70;99.50
25188;DHT22;13141;50.414;8.050;2023-03-01T01:35:00;0.70;99.60
25188;DHT22;13141;50.414;8.050;2023-03-01T01:37:25;0.70;99.30
25188;DHT22;13141;50.414;8.050;2023-03-01T01:39:51;0.80;99.10
25188;DHT22;13141;50.414;8.050;2023-03-01T01:42:17;0.90;98.90
25188;DHT22;13141;50.414;8.050;2023-03-01T01:44:46;0.90;98.90
25188;DHT22;13141;50.414;8.050;2023-03-01T01:47:14;0.90;98.90
25188;DHT22;13141;50.414;8.050;2023-03-01T01:49:46;0.80;99.00
25188;DHT22;13141;50.414;8.050;2023-03-01T01:52:17;0.80;98.80
25188;DHT22;13141;50.414;8.050;2023-03-01T01:54:46;0.90;98.60
25188;DHT22;13141;50.414;8.050;2023-03-01T01:57:16;0.80;98.90
25188;DHT22;13141;50.414;8.050;2023-03-01T01:59:47;0.80;98.70
25188;DHT22;13141;50.414;8.050;2023-03-01T02:02:14;0.80;98.70
25188;DHT22;13141;50.414;8.050;2023-03-01T02:04:40;0.80;98.50
25188;DHT22;13141;50.414;8.050;2023-03-01T02:07:14;0.80;98.50
25188;DHT22;13141;50.414;8.050;2023-03-01T02:09:41;1.10;98.90
25188;DHT22;13141;50.414;8.050;2023-03-01T02:12:09;0.60;99.00
25188;DHT22;13141;50.414;8.050;2023-03-01T02:14:34;0.60;99.00
25188;DHT22;13141;50.414;8.050;2023-03-01T02:17:00;0.50;99.00
25188;DHT22;13141;50.414;8.050;2023-03-01T02:19:34;0.50;98.90
25188;DHT22;13141;50.414;8.050;2023-03-01T02:22:13;0.50;99.20
25188;DHT22;13141;50.414;8.050;2023-03-01T02:24:53;0.30;99.70
25188;DHT22;13141;50.414;8.050;2023-03-01T02:27:23;0.30;99.60
25188;DHT22;13141;50.414;8.050;2023-03-01T02:29:53;0.30;99.90
25188;DHT22;13141;50.414;8.050;2023-03-01T02:32:19;0.20;99.70
25188;DHT22;13141;50.414;8.050;2023-03-01T02:34:46;0.20;99.70
25188;DHT22;13141;50.414;8.050;2023-03-01T02:37:14;0.20;99.80
25188;DHT22;13141;50.414;8.050;2023-03-01T02:39:44;0.20;99.70
25188;DHT22;13141;50.414;8.050;2023-03-01T02:42:17;0.20;99.80
25188;DHT22;13141;50.414;8.050;2023-03-01T02:44:43;0.10;99.90
25188;DHT22;13141;50.414;8.050;2023-03-01T02:47:10;0.10;99.90
25188;DHT22;13141;50.414;8.050;2023-03-01T02:49:36;0.00;99.90
25188;DHT22;13141;50.414;8.050;2023-03-01T02:52:23;0.10;99.90
25188;DHT22;13141;50.414;8.050;2023-03-01T02:54:58;0.00;99.90
25188;DHT22;13141;50.414;8.050;2023-03-01T02:57:24;-0.10;99.90
25188;DHT22;13141;50.414;8.050;2023-03-01T02:59:52;0.00;99.90
25188;DHT22;13141;50.414;8.050;2023-03-01T03:02:22;0.00;99.90
25188;DHT22;13141;50.414;8.050;2023-03-01T03:04:48;0.10;99.90
25188;DHT22;13141;50.414;8.050;2023-03-01T03:07:13;0.20;99.90
25188;DHT22;13141;50.414;8.050;2023-03-01T03:09:39;0.50;99.90
25188;DHT22;13141;50.414;8.050;2023-03-01T03:12:05;0.30;99.80
25188;DHT22;13141;50.414;8.050;2023-03-01T03:14:30;0.20;99.70
25188;DHT22;13141;50.414;8.050;2023-03-01T03:16:56;0.10;99.90
25188;DHT22;13141;50.414;8.050;2023-03-01T03:19:23;-0.20;99.90
25188;DHT22;13141;50.414;8.050;2023-03-01T03:21:48;-0.30;99.90
25188;DHT22;13141;50.414;8.050;2023-03-01T03:24:14;-0.20;99.90
25188;DHT22;13141;50.414;8.050;2023-03-01T03:26:40;-0.30;99.90
25188;DHT22;13141;50.414;8.050;2023-03-01T03:29:05;-0.20;99.90
25188;DHT22;13141;50.414;8.050;2023-03-01T03:31:31;-0.10;99.90
25188;DHT22;13141;50.414;8.050;2023-03-01T03:33:56;0.20;99.90
25188;DHT22;13141;50.414;8.050;2023-03-01T03:36:24;-0.20;99.90
25188;DHT22;13141;50.414;8.050;2023-03-01T03:38:49;-0.10;99.90
25188;DHT22;13141;50.414;8.050;2023-03-01T03:41:16;0.00;99.90
25188;DHT22;13141;50.414;8.050;2023-03-01T03:43:42;0.00;99.90
25188;DHT22;13141;50.414;8.050;2023-03-01T03:46:09;-0.10;99.90
25188;DHT22;13141;50.414;8.050;2023-03-01T03:48:36;-0.20;99.90
25188;DHT22;13141;50.414;8.050;2023-03-01T03:51:02;-0.30;99.90
25188;DHT22;13141;50.414;8.050;2023-03-01T03:53:29;-0.50;99.90
25188;DHT22;13141;50.414;8.050;2023-03-01T03:55:55;-0.60;99.90
25188;DHT22;13141;50.414;8.050;2023-03-01T03:58:23;-0.50;99.90
25188;DHT22;13141;50.414;8.050;2023-03-01T04:00:50;-0.30;99.90
25188;DHT22;13141;50.414;8.050;2023-03-01T04:03:17;-0.20;99.90
25188;DHT22;13141;50.414;8.050;2023-03-01T04:05:42;-0.20;99.90
25188;DHT22;13141;50.414;8.050;2023-03-01T04:08:09;-0.20;99.90
25188;DHT22;13141;50.414;8.050;2023-03-01T04:10:37;-0.20;99.90
25188;DHT22;13141;50.414;8.050;2023-03-01T04:13:03;-0.20;99.90
25188;DHT22;13141;50.414;8.050;2023-03-01T04:15:28;-0.20;99.90
25188;DHT22;13141;50.414;8.050;2023-03-01T04:17:55;-0.20;99.90
25188;DHT22;13141;50.414;8.050;2023-03-01T04:20:23;-0.20;99.90
25188;DHT22;13141;50.414;8.050;2023-03-01T04:22:48;-0.20;99.90
25188;DHT22;13141;50.414;8.050;2023-03-01T04:25:14;-0.20;99.90
25188;DHT22;13141;50.414;8.050;2023-03-01T04:27:41;-0.20;99.90
25188;DHT22;13141;50.414;8.050;2023-03-01T04:30:08;-0.20;99.90
25188;DHT22;13141;50.414;8.050;2023-03-01T04:32:34;-0.20;99.90
25188;DHT22;13141;50.414;8.050;2023-03-01T04:35:00;-0.20;99.90
25188;DHT22;13141;50.414;8.050;2023-03-01T04:37:26;-0.10;99.90
25188;DHT22;13141;50.414;8.050;2023-03-01T04:39:51;-0.10;99.90
25188;DHT22;13141;50.414;8.050;2023-03-01T04:42:17;-0.10;99.90
25188;DHT22;13141;50.414;8.050;2023-03-01T04:44:45;-0.10;99.90
25188;DHT22;13141;50.414;8.050;2023-03-01T04:47:11;-0.10;99.90
25188;DHT22;13141;50.414;8.050;2023-03-01T04:49:37;-0.10;99.90
25188;DHT22;13141;50.414;8.050;2023-03-01T04:52:03;-0.20;99.70
25188;DHT22;13141;50.414;8.050;2023-03-01T04:54:29;-0.20;99.90
25188;DHT22;13141;50.414;8.050;2023-03-01T04:56:54;-0.20;99.90
25188;DHT22;13141;50.414;8.050;2023-03-01T04:59:20;-0.40;99.90
25188;DHT22;13141;50.414;8.050;2023-03-01T05:01:47;-0.70;99.90
25188;DHT22;13141;50.414;8.050;2023-03-01T05:04:12;-0.60;99.90
25188;DHT22;13141;50.414;8.050;2023-03-01T05:06:38;-0.90;99.90
25188;DHT22;13141;50.414;8.050;2023-03-01T05:09:03;-1.00;99.90
25188;DHT22;13141;50.414;8.050;2023-03-01T05:11:29;-0.90;99.90
25188;DHT22;13141;50.414;8.050;2023-03-01T05:13:55;-0.50;99.90
25188;DHT22;13141;50.414;8.050;2023-03-01T05:16:20;-0.80;99.90
25188;DHT22;13141;50.414;8.050;2023-03-01T05:18:47;-0.90;99.90
25188;DHT22;13141;50.414;8.050;2023-03-01T05:21:14;-0.80;99.90
25188;DHT22;13141;50.414;8.050;2023-03-01T05:23:40;-0.80;99.90
25188;DHT22;13141;50.414;8.050;2023-03-01T05:26:06;-0.90;99.90
25188;DHT22;13141;50.414;8.050;2023-03-01T05:28:32;-0.90;99.90
25188;DHT22;13141;50.414;8.050;2023-03-01T05:30:58;-0.90;99.90
25188;DHT22;13141;50.414;8.050;2023-03-01T05:33:24;-0.80;99.90
25188;DHT22;13141;50.414;8.050;2023-03-01T05:35:51;-0.80;99.90
25188;DHT22;13141;50.414;8.050;2023-03-01T05:38:18;-0.90;99.90
25188;DHT22;13141;50.414;8.050;2023-03-01T05:40:45;-0.90;99.90
25188;DHT22;13141;50.414;8.050;2023-03-01T05:43:12;-1.00;99.90
25188;DHT22;13141;50.414;8.050;2023-03-01T05:45:38;-0.90;99.90
25188;DHT22;13141;50.414;8.050;2023-03-01T05:48:05;-0.80;99.90
25188;DHT22;13141;50.414;8.050;2023-03-01T05:50:33;-0.80;99.90
25188;DHT22;13141;50.414;8.050;2023-03-01T05:53:02;-0.80;99.90
25188;DHT22;13141;50.414;8.050;2023-03-01T05:55:29;-0.90;99.90
25188;DHT22;13141;50.414;8.050;2023-03-01T05:57:57;-0.80;99.90
25188;DHT22;13141;50.414;8.050;2023-03-01T06:00:23;-0.80;99.90
25188;DHT22;13141;50.414;8.050;2023-03-01T06:02:48;-0.70;99.90
25188;DHT22;13141;50.414;8.050;2023-03-01T06:05:15;-0.60;99.90
25188;DHT22;13141;50.414;8.050;2023-03-01T06:07:41;-0.50;99.90
25188;DHT22;13141;50.414;8.050;2023-03-01T06:10:09;-0.50;99.90
25188;DHT22;13141;50.414;8.050;2023-03-01T06:12:37;-0.50;99.90
25188;DHT22;13141;50.414;8.050;2023-03-01T06:15:04;-0.20;99.90
25188;DHT22;13141;50.414;8.050;2023-03-01T06:17:32;-0.40;99.90
25188;DHT22;13141;50.414;8.050;2023-03-01T06:19:57;-0.10;99.90
25188;DHT22;13141;50.414;8.050;2023-03-01T06:22:23;-0.40;99.90
25188;DHT22;13141;50.414;8.050;2023-03-01T06:24:49;-0.50;99.90
25188;DHT22;13141;50.414;8.050;2023-03-01T06:27:16;-0.50;99.90
25188;DHT22;13141;50.414;8.050;2023-03-01T06:29:42;-0.50;99.90
25188;DHT22;13141;50.414;8.050;2023-03-01T06:32:07;-0.40;99.90
25188;DHT22;13141;50.414;8.050;2023-03-01T06:34:33;-0.30;99.90
25188;DHT22;13141;50.414;8.050;2023-03-01T06:36:58;-0.30;99.90
25188;DHT22;13141;50.414;8.050;2023-03-01T06:39:24;-0.30;99.90
25188;DHT22;13141;50.414;8.050;2023-03-01T06:41:50;-0.30;99.90
25188;DHT22;13141;50.414;8.050;2023-03-01T06:44:17;-0.30;99.90
25188;DHT22;13141;50.414;8.050;2023-03-01T06:46:43;0.00;99.90
25188;DHT22;13141;50.414;8.050;2023-03-01T06:49:08;-0.20;99.90
25188;DHT22;13141;50.414;8.050;2023-03-01T06:51:34;-0.30;99.90
25188;DHT22;13141;50.414;8.050;2023-03-01T06:53:59;-0.20;99.90
25188;DHT22;13141;50.414;8.050;2023-03-01T06:56:25;-0.20;99.90
25188;DHT22;13141;50.414;8.050;2023-03-01T06:58:51;-0.20;99.90
25188;DHT22;13141;50.414;8.050;2023-03-01T07:01:17;-0.20;99.90
25188;DHT22;13141;50.414;8.050;2023-03-01T07:03:43;0.10;99.90
25188;DHT22;13141;50.414;8.050;2023-03-01T07:06:09;-0.20;99.90
25188;DHT22;13141;50.414;8.050;2023-03-01T07:08:34;-0.20;99.90
25188;DHT22;13141;50.414;8.050;2023-03-01T07:11:00;-0.30;99.90
25188;DHT22;13141;50.414;8.050;2023-03-01T07:13:26;-0.40;99.90
25188;DHT22;13141;50.414;8.050;2023-03-01T07:15:51;-0.40;99.90
25188;DHT22;13141;50.414;8.050;2023-03-01T07:18:18;-0.40;99.90
25188;DHT22;13141;50.414;8.050;2023-03-01T07:20:44;-0.40;99.90
25188;DHT22;13141;50.414;8.050;2023-03-01T07:23:10;-0.30;99.90
25188;DHT22;13141;50.414;8.050;2023-03-01T07:25:36;-0.50;99.90
25188;DHT22;13141;50.414;8.050;2023-03-01T07:28:01;-0.40;99.90
25188;DHT22;13141;50.414;8.050;2023-03-01T07:30:27;-0.30;99.90
25188;DHT22;13141;50.414;8.050;2023-03-01T07:32:53;-0.20;99.90
25188;DHT22;13141;50.414;8.050;2023-03-01T07:35:20;-0.10;99.90
25188;DHT22;13141;50.414;8.050;2023-03-01T07:37:46;0.00;99.90
25188;DHT22;13141;50.414;8.050;2023-03-01T07:40:12;0.10;99.90
25188;DHT22;13141;50.414;8.050;2023-03-01T07:42:38;0.20;99.90
25188;DHT22;13141;50.414;8.050;2023-03-01T07:45:05;0.50;99.90
25188;DHT22;13141;50.414;8.050;2023-03-01T07:47:31;0.40;99.90
25188;DHT22;13141;50.414;8.050;2023-03-01T07:49:57;0.50;99.90
25188;DHT22;13141;50.414;8.050;2023-03-01T07:52:24;0.80;99.90
25188;DHT22;13141;50.414;8.050;2023-03-01T07:54:49;0.70;99.90
25188;DHT22;13141;50.414;8.050;2023-03-01T07:57:16;0.80;99.90
25188;DHT22;13141;50.414;8.050;2023-03-01T07:59:41;0.90;99.90
25188;DHT22;13141;50.414;8.050;2023-03-01T08:02:08;1.00;99.90
25188;DHT22;13141;50.414;8.050;2023-03-01T08:04:34;1.00;99.90
25188;DHT22;13141;50.414;8.050;2023-03-01T08:06:59;1.10;99.90
25188;DHT22;13141;50.414;8.050;2023-03-01T08:09:26;0.60;99.90
25188;DHT22;13141;50.414;8.050;2023-03-01T08:11:52;1.50;99.90
25188;DHT22;13141;50.414;8.050;2023-03-01T08:14:17;1.40;99.90
25188;DHT22;13141;50.414;8.050;2023-03-01T08:16:43;1.60;99.90
25188;DHT22;13141;50.414;8.050;2023-03-01T08:19:10;1.60;99.90
25188;DHT22;13141;50.414;8.050;2023-03-01T08:21:37;1.60;99.90
25188;DHT22;13141;50.414;8.050;2023-03-01T08:24:03;1.80;99.90
25188;DHT22;13141;50.414;8.050;2023-03-01T08:26:32;1.90;99.90
25188;DHT22;13141;50.414;8.050;2023-03-01T08:28:59;2.00;99.90
25188;DHT22;13141;50.414;8.050;2023-03-01T08:31:27;2.00;99.90
25188;DHT22;13141;50.414;8.050;2023-03-01T08:33:55;2.10;99.90
25188;DHT22;13141;50.414;8.050;2023-03-01T08:36:21;2.20;99.90
25188;DHT22;13141;50.414;8.050;2023-03-01T08:38:47;2.40;99.90
25188;DHT22;13141;50.414;8.050;2023-03-01T08:41:13;2.60;99.90
25188;DHT22;13141;50.414;8.050;2023-03-01T08:43:40;2.80;99.90
25188;DHT22;13141;50.414;8.050;2023-03-01T08:46:06;3.10;99.30
25188;DHT22;13141;50.414;8.050;2023-03-01T08:48:31;3.40;99.10
25188;DHT22;13141;50.414;8.050;2023-03-01T08:50:59;3.70;98.50
25188;DHT22;13141;50.414;8.050;2023-03-01T08:53:31;3.90;98.00
25188;DHT22;13141;50.414;8.050;2023-03-01T08:55:59;4.10;98.00
25188;DHT22;13141;50.414;8.050;2023-03-01T08:58:25;4.40;97.80
25188;DHT22;13141;50.414;8.050;2023-03-01T09:00:52;4.60;97.70
25188;DHT22;13141;50.414;8.050;2023-03-01T09:03:17;4.80;96.80
25188;DHT22;13141;50.414;8.050;2023-03-01T09:05:43;5.00;96.80
25188;DHT22;13141;50.414;8.050;2023-03-01T09:08:08;5.10;96.40
25188;DHT22;13141;50.414;8.050;2023-03-01T09:10:37;5.30;96.10
25188;DHT22;13141;50.414;8.050;2023-03-01T09:13:03;5.50;96.00
25188;DHT22;13141;50.414;8.050;2023-03-01T09:15:28;5.70;96.30
25188;DHT22;13141;50.414;8.050;2023-03-01T09:17:55;5.90;95.80
25188;DHT22;13141;50.414;8.050;2023-03-01T09:20:21;6.10;95.50
25188;DHT22;13141;50.414;8.050;2023-03-01T09:22:46;6.30;95.50
25188;DHT22;13141;50.414;8.050;2023-03-01T09:25:12;6.40;95.30
25188;DHT22;13141;50.414;8.050;2023-03-01T09:27:38;6.60;94.60
25188;DHT22;13141;50.414;8.050;2023-03-01T09:30:04;6.70;93.80
25188;DHT22;13141;50.414;8.050;2023-03-01T09:32:30;6.80;94.70
25188;DHT22;13141;50.414;8.050;2023-03-01T09:34:58;6.90;93.80
25188;DHT22;13141;50.414;8.050;2023-03-01T09:37:23;7.10;93.40
25188;DHT22;13141;50.414;8.050;2023-03-01T09:39:49;7.20;93.70
25188;DHT22;13141;50.414;8.050;2023-03-01T09:42:15;7.40;92.90
25188;DHT22;13141;50.414;8.050;2023-03-01T09:44:46;7.60;93.60
25188;DHT22;13141;50.414;8.050;2023-03-01T09:47:17;7.80;92.60
25188;DHT22;13141;50.414;8.050;2023-03-01T09:49:43;7.90;91.80
25188;DHT22;13141;50.414;8.050;2023-03-01T09:52:21;8.10;92.50
25188;DHT22;13141;50.414;8.050;2023-03-01T09:54:49;8.30;91.70
25188;DHT22;13141;50.414;8.050;2023-03-01T09:57:20;8.50;92.40
25188;DHT22;13141;50.414;8.050;2023-03-01T10:00:00;8.70;91.50
25188;DHT22;13141;50.414;8.050;2023-03-01T10:02:31;9.00;92.00
25188;DHT22;13141;50.414;8.050;2023-03-01T10:05:09;9.20;91.20
25188;DHT22;13141;50.414;8.050;2023-03-01T10:07:44;9.40;90.70
25188;DHT22;13141;50.414;8.050;2023-03-01T10:10:38;9.60;90.40
25188;DHT22;13141;50.414;8.050;2023-03-01T10:13:13;9.70;90.80
25188;DHT22;13141;50.414;8.050;2023-03-01T10:15:44;9.90;89.50
25188;DHT22;13141;50.414;8.050;2023-03-01T10:18:16;9.90;87.20
25188;DHT22;13141;50.414;8.050;2023-03-01T10:20:46;10.10;87.30
25188;DHT22;13141;50.414;8.050;2023-03-01T10:23:15;10.20;85.90
25188;DHT22;13141;50.414;8.050;2023-03-01T10:25:47;10.50;88.80
25188;DHT22;13141;50.414;8.050;2023-03-01T10:28:23;10.80;85.80
25188;DHT22;13141;50.414;8.050;2023-03-01T10:30:50;11.00;83.40
25188;DHT22;13141;50.414;8.050;2023-03-01T10:33:19;11.10;82.80
25188;DHT22;13141;50.414;8.050;2023-03-01T10:35:45;11.20;83.50
25188;DHT22;13141;50.414;8.050;2023-03-01T10:38:13;11.20;81.60
25188;DHT22;13141;50.414;8.050;2023-03-01T10:40:53;11.40;81.60
25188;DHT22;13141;50.414;8.050;2023-03-01T10:43:19;11.60;79.50
25188;DHT22;13141;50.414;8.050;2023-03-01T10:45:45;11.70;79.30
25188;DHT22;13141;50.414;8.050;2023-03-01T10:48:13;11.80;78.50
25188;DHT22;13141;50.414;8.050;2023-03-01T10:50:40;11.90;78.90
25188;DHT22;13141;50.414;8.050;2023-03-01T10:53:20;12.10;76.60
25188;DHT22;13141;50.414;8.050;2023-03-01T10:55:46;12.30;76.70
25188;DHT22;13141;50.414;8.050;2023-03-01T10:58:20;12.40;74.80
25188;DHT22;13141;50.414;8.050;2023-03-01T11:00:48;12.40;76.30
25188;DHT22;13141;50.414;8.050;2023-03-01T11:03:17;12.60;76.80
25188;DHT22;13141;50.414;8.050;2023-03-01T11:06:02;12.60;73.30
25188;DHT22;13141;50.414;8.050;2023-03-01T11:08:49;12.70;72.20
25188;DHT22;13141;50.414;8.050;2023-03-01T11:11:21;12.80;73.40
25188;DHT22;13141;50.414;8.050;2023-03-01T11:13:54;13.10;74.50
25188;DHT22;13141;50.414;8.050;2023-03-01T11:16:30;13.20;71.00
25188;DHT22;13141;50.414;8.050;2023-03-01T11:18:58;13.30;69.30
25188;DHT22;13141;50.414;8.050;2023-03-01T11:21:24;13.50;73.50
25188;DHT22;13141;50.414;8.050;2023-03-01T11:23:51;13.80;71.30
25188;DHT22;13141;50.414;8.050;2023-03-01T11:26:17;13.90;69.90
25188;DHT22;13141;50.414;8.050;2023-03-01T11:28:45;14.10;71.00
25188;DHT22;13141;50.414;8.050;2023-03-01T11:31:13;14.20;69.70
25188;DHT22;13141;50.414;8.050;2023-03-01T11:33:43;14.40;66.60
25188;DHT22;13141;50.414;8.050;2023-03-01T11:36:17;14.30;64.60
25188;DHT22;13141;50.414;8.050;2023-03-01T11:38:44;14.30;66.40
25188;DHT22;13141;50.414;8.050;2023-03-01T11:41:15;14.50;63.50
25188;DHT22;13141;50.414;8.050;2023-03-01T11:43:48;14.70;66.80
25188;DHT22;13141;50.414;8.050;2023-03-01T11:46:47;14.90;68.10
25188;DHT22;13141;50.414;8.050;2023-03-01T11:49:45;14.90;61.20
25188;DHT22;13141;50.414;8.050;2023-03-01T11:52:20;15.00;60.90
25188;DHT22;13141;50.414;8.050;2023-03-01T11:54:55;14.60;62.00
25188;DHT22;13141;50.414;8.050;2023-03-01T11:57:36;15.20;61.70
25188;DHT22;13141;50.414;8.050;2023-03-01T12:00:17;15.50;61.00
25188;DHT22;13141;50.414;8.050;2023-03-01T12:03:14;15.70;61.60
25188;DHT22;13141;50.414;8.050;2023-03-01T12:05:51;15.80;62.00
25188;DHT22;13141;50.414;8.050;2023-03-01T12:08:24;15.90;60.80
25188;DHT22;13141;50.414;8.050;2023-03-01T12:10:57;16.00;58.80
25188;DHT22;13141;50.414;8.050;2023-03-01T12:13:43;16.10;58.50
25188;DHT22;13141;50.414;8.050;2023-03-01T12:16:22;16.20;58.30
25188;DHT22;13141;50.414;8.050;2023-03-01T12:19:13;16.20;58.20
25188;DHT22;13141;50.414;8.050;2023-03-01T12:21:51;16.50;57.60
25188;DHT22;13141;50.414;8.050;2023-03-01T12:24:35;16.70;57.10
25188;DHT22;13141;50.414;8.050;2023-03-01T12:27:15;16.80;56.20
25188;DHT22;13141;50.414;8.050;2023-03-01T12:29:46;16.80;55.30
25188;DHT22;13141;50.414;8.050;2023-03-01T12:32:25;16.90;55.20
25188;DHT22;13141;50.414;8.050;2023-03-01T12:35:42;16.90;55.10
25188;DHT22;13141;50.414;8.050;2023-03-01T12:38:29;17.10;54.30
25188;DHT22;13141;50.414;8.050;2023-03-01T12:41:20;17.30;55.00
25188;DHT22;13141;50.414;8.050;2023-03-01T12:44:01;17.40;55.50
25188;DHT22;13141;50.414;8.050;2023-03-01T12:46:41;17.50;55.30
25188;DHT22;13141;50.414;8.050;2023-03-01T12:49:13;17.40;54.30
25188;DHT22;13141;50.414;8.050;2023-03-01T12:51:46;17.30;53.90
25188;DHT22;13141;50.414;8.050;2023-03-01T12:54:16;17.40;54.40
25188;DHT22;13141;50.414;8.050;2023-03-01T12:56:46;17.60;54.00
25188;DHT22;13141;50.414;8.050;2023-03-01T12:59:17;17.70;52.30
25188;DHT22;13141;50.414;8.050;2023-03-01T13:01:49;17.70;54.20
25188;DHT22;13141;50.414;8.050;2023-03-01T13:04:29;17.80;53.20
25188;DHT22;13141;50.414;8.050;2023-03-01T13:07:13;17.90;54.90
25188;DHT22;13141;50.414;8.050;2023-03-01T13:09:43;18.10;55.80
25188;DHT22;13141;50.414;8.050;2023-03-01T13:12:44;18.20;51.50
25188;DHT22;13141;50.414;8.050;2023-03-01T13:15:26;18.30;51.60
25188;DHT22;13141;50.414;8.050;2023-03-01T13:17:53;18.30;51.30
25188;DHT22;13141;50.414;8.050;2023-03-01T13:20:21;18.30;52.70
25188;DHT22;13141;50.414;8.050;2023-03-01T13:23:04;18.40;51.40
25188;DHT22;13141;50.414;8.050;2023-03-01T13:25:31;18.50;50.90
25188;DHT22;13141;50.414;8.050;2023-03-01T13:30:56;18.60;51.10
25188;DHT22;13141;50.414;8.050;2023-03-01T13:33:41;18.60;50.40
25188;DHT22;13141;50.414;8.050;2023-03-01T13:36:08;18.30;47.90
25188;DHT22;13141;50.414;8.050;2023-03-01T13:38:55;18.40;48.80
25188;DHT22;13141;50.414;8.050;2023-03-01T13:41:49;18.10;49.20
25188;DHT22;13141;50.414;8.050;2023-03-01T13:44:21;18.00;49.30
25188;DHT22;13141;50.414;8.050;2023-03-01T13:46:47;18.00;47.60
25188;DHT22;13141;50.414;8.050;2023-03-01T13:49:16;18.10;48.60
25188;DHT22;13141;50.414;8.050;2023-03-01T13:51:46;18.10;49.20
25188;DHT22;13141;50.414;8.050;2023-03-01T13:54:15;18.10;46.70
25188;DHT22;13141;50.414;8.050;2023-03-01T13:56:41;18.00;49.60
25188;DHT22;13141;50.414;8.050;2023-03-01T13:59:13;18.20;47.10
25188;DHT22;13141;50.414;8.050;2023-03-01T14:01:39;18.20;46.90
25188;DHT22;13141;50.414;8.050;2023-03-01T14:04:19;18.40;51.00
25188;DHT22;13141;50.414;8.050;2023-03-01T14:06:46;18.60;49.70
25188;DHT22;13141;50.414;8.050;2023-03-01T14:09:17;18.60;50.00
25188;DHT22;13141;50.414;8.050;2023-03-01T14:11:59;18.80;50.80
25188;DHT22;13141;50.414;8.050;2023-03-01T14:14:34;18.90;51.20
25188;DHT22;13141;50.414;8.050;2023-03-01T14:17:19;18.90;50.60
25188;DHT22;13141;50.414;8.050;2023-03-01T14:19:47;18.80;51.00
25188;DHT22;13141;50.414;8.050;2023-03-01T14:22:17;18.70;50.60
25188;DHT22;13141;50.414;8.050;2023-03-01T14:24:47;18.60;50.00
25188;DHT22;13141;50.414;8.050;2023-03-01T14:27:13;18.50;47.60
25188;DHT22;13141;50.414;8.050;2023-03-01T14:29:40;18.40;47.80
25188;DHT22;13141;50.414;8.050;2023-03-01T14:32:11;18.40;49.20
25188;DHT22;13141;50.414;8.050;2023-03-01T14:34:43;18.60;49.10
25188;DHT22;13141;50.414;8.050;2023-03-01T14:37:19;18.40;49.00
25188;DHT22;13141;50.414;8.050;2023-03-01T14:39:46;18.40;50.40
25188;DHT22;13141;50.414;8.050;2023-03-01T14:42:13;18.50;49.90
25188;DHT22;13141;50.414;8.050;2023-03-01T14:44:41;18.50;49.40
25188;DHT22;13141;50.414;8.050;2023-03-01T14:47:12;18.40;48.90
25188;DHT22;13141;50.414;8.050;2023-03-01T14:49:38;18.40;48.50
25188;DHT22;13141;50.414;8.050;2023-03-01T14:52:06;18.50;49.80
25188;DHT22;13141;50.414;8.050;2023-03-01T14:54:37;18.50;48.30
25188;DHT22;13141;50.414;8.050;2023-03-01T14:57:13;18.40;49.70
25188;DHT22;13141;50.414;8.050;2023-03-01T14:59:41;18.40;47.70
25188;DHT22;13141;50.414;8.050;2023-03-01T15:02:11;18.30;47.60
25188;DHT22;13141;50.414;8.050;2023-03-01T15:04:39;18.20;47.00
25188;DHT22;13141;50.414;8.050;2023-03-01T15:07:12;18.20;48.00
25188;DHT22;13141;50.414;8.050;2023-03-01T15:09:40;18.20;47.10
25188;DHT22;13141;50.414;8.050;2023-03-01T15:12:35;18.00;47.00
25188;DHT22;13141;50.414;8.050;2023-03-01T15:15:01;17.70;46.00
25188;DHT22;13141;50.414;8.050;2023-03-01T15:17:44;17.50;45.60
25188;DHT22;13141;50.414;8.050;2023-03-01T15:20:17;17.30;46.00
25188;DHT22;13141;50.414;8.050;2023-03-01T15:22:44;17.20;45.80
25188;DHT22;13141;50.414;8.050;2023-03-01T15:25:15;17.30;46.50
25188;DHT22;13141;50.414;8.050;2023-03-01T15:27:46;17.20;45.60
25188;DHT22;13141;50.414;8.050;2023-03-01T15:30:17;17.00;45.60
25188;DHT22;13141;50.414;8.050;2023-03-01T15:32:44;16.70;45.20
25188;DHT22;13141;50.414;8.050;2023-03-01T15:35:32;16.60;47.50
25188;DHT22;13141;50.414;8.050;2023-03-01T15:38:00;16.80;47.10
25188;DHT22;13141;50.414;8.050;2023-03-01T15:40:28;16.80;46.60
25188;DHT22;13141;50.414;8.050;2023-03-01T15:42:56;16.60;45.60
25188;DHT22;13141;50.414;8.050;2023-03-01T15:45:24;16.50;43.90
25188;DHT22;13141;50.414;8.050;2023-03-01T15:47:52;16.40;46.70
25188;DHT22;13141;50.414;8.050;2023-03-01T15:50:21;16.30;46.80
25188;DHT22;13141;50.414;8.050;2023-03-01T15:52:47;16.20;45.80
25188;DHT22;13141;50.414;8.050;2023-03-01T15:55:19;15.90;46.30